Terminal Aerodrome Forecast
Issued by NWS Amarillo, TX

Home | Current Version | Previous Version | Text Only | Print | Product List | Glossary On
Versions: 1 2 3 4 5 6 7 8 9 10 11 12 13 14 15 16 17 18
000
FTUS44 KAMA 231100
TAFDHT
TAF
KDHT 231120Z 2312/2412 20014KT P6SM SCT050 BKN200
     FM231500 22014G24KT P6SM SCT050 BKN200
     FM240100 22008KT P6SM SCT120 BKN200=

USA.gov is the U.S. government's official web portal to all federal, state and local government web resources and services.